createdAt,value
2022-10-25T00:00:55.034Z,12
2022-10-25T00:01:56.238Z,12
2022-10-25T00:02:58.094Z,12
2022-10-25T00:03:59.440Z,12
2022-10-25T00:05:01.273Z,11
2022-10-25T00:06:03.373Z,12
2022-10-25T00:07:05.254Z,11
2022-10-25T00:08:07.073Z,11
2022-10-25T00:09:08.033Z,11
2022-10-25T00:10:09.601Z,11
2022-10-25T00:11:11.840Z,11
2022-10-25T00:12:13.132Z,11
2022-10-25T00:13:14.481Z,11
2022-10-25T00:14:16.411Z,9
2022-10-25T00:15:18.081Z,11
2022-10-25T00:16:19.913Z,11
2022-10-25T00:17:21.174Z,11
2022-10-25T00:18:23.190Z,12
2022-10-25T00:19:25.054Z,12
2022-10-25T00:20:26.392Z,12
2022-10-25T00:21:28.073Z,12
2022-10-25T00:22:29.070Z,11
2022-10-25T00:23:30.354Z,9
2022-10-25T00:24:32.121Z,11
2022-10-25T00:25:33.154Z,9
2022-10-25T00:26:34.083Z,9
2022-10-25T00:27:35.093Z,9
2022-10-25T00:28:36.256Z,9
2022-10-25T00:29:38.413Z,9
2022-10-25T00:30:40.163Z,11
2022-10-25T00:31:42.150Z,11
2022-10-25T00:32:44.241Z,11
2022-10-25T00:33:45.174Z,11
2022-10-25T00:34:47.013Z,11
2022-10-25T00:35:48.081Z,11
2022-10-25T00:36:49.053Z,11
2022-10-25T00:37:50.136Z,11
2022-10-25T00:38:51.081Z,10
2022-10-25T00:39:52.254Z,11
2022-10-25T00:40:54.093Z,11
2022-10-25T00:41:55.042Z,11
2022-10-25T00:42:56.091Z,12
2022-10-25T00:43:57.461Z,11
2022-10-25T00:44:59.533Z,11
2022-10-25T00:47:03.453Z,11
2022-10-25T00:48:05.294Z,9
2022-10-25T00:49:07.494Z,9
2022-10-25T00:50:09.154Z,11
2022-10-25T00:51:10.193Z,11
2022-10-25T00:52:12.153Z,9
2022-10-25T00:53:13.054Z,11
2022-10-25T00:54:14.161Z,9
2022-10-25T00:55:15.221Z,9
2022-10-25T00:56:17.201Z,9
2022-10-25T00:57:19.583Z,9
2022-10-25T00:58:21.232Z,9
2022-10-25T00:59:23.093Z,9
2022-10-25T01:00:24.254Z,11
2022-10-25T01:01:28.059Z,11
2022-10-25T01:02:29.222Z,11
2022-10-25T01:03:31.163Z,11
2022-10-25T01:04:33.177Z,11
2022-10-25T01:05:35.614Z,11
2022-10-25T01:06:37.621Z,11
2022-10-25T01:07:39.172Z,11
2022-10-25T01:08:41.166Z,11
2022-10-25T01:09:43.101Z,11
2022-10-25T01:10:44.261Z,11
2022-10-25T01:11:46.201Z,11
2022-10-25T01:12:51.237Z,11
2022-10-25T01:13:50.112Z,11
2022-10-25T01:14:51.094Z,11
2022-10-25T01:15:52.694Z,9
2022-10-25T01:16:54.075Z,9
2022-10-25T01:17:55.554Z,9
2022-10-25T01:18:57.142Z,9
2022-10-25T01:19:58.242Z,11
2022-10-25T01:21:00.434Z,11
2022-10-25T01:22:02.234Z,11
2022-10-25T01:23:04.193Z,11
2022-10-25T01:24:06.194Z,11
2022-10-25T01:25:08.113Z,11
2022-10-25T01:26:10.093Z,11
2022-10-25T01:27:11.700Z,11
2022-10-25T01:28:13.119Z,11
2022-10-25T01:29:14.133Z,11
2022-10-25T01:30:15.153Z,12
2022-10-25T01:31:16.575Z,11
2022-10-25T01:32:18.334Z,11
2022-10-25T01:33:20.153Z,11
2022-10-25T01:34:22.234Z,11
2022-10-25T01:35:24.090Z,12
2022-10-25T01:36:27.133Z,12
2022-10-25T01:37:28.254Z,12
2022-10-25T01:38:30.698Z,12
2022-10-25T01:39:32.122Z,12
2022-10-25T01:40:33.093Z,11
2022-10-25T01:41:34.213Z,11
2022-10-25T01:42:36.214Z,11
2022-10-25T01:43:38.421Z,11
2022-10-25T01:44:40.255Z,12
2022-10-25T01:45:42.133Z,12
2022-10-25T01:46:43.473Z,11
2022-10-25T01:47:45.442Z,11
2022-10-25T01:48:50.619Z,11
2022-10-25T01:49:52.577Z,11
2022-10-25T01:50:54.193Z,12
2022-10-25T01:51:56.541Z,12
2022-10-25T01:52:58.158Z,12
2022-10-25T01:53:59.133Z,13
2022-10-25T01:55:00.123Z,12
2022-10-25T01:56:01.341Z,12
2022-10-25T01:57:03.915Z,12
2022-10-25T01:58:05.798Z,11
2022-10-25T01:59:07.438Z,12
2022-10-25T02:00:09.514Z,11
2022-10-25T02:04:17.203Z,12
2022-10-25T02:05:18.130Z,12
2022-10-25T02:06:19.200Z,12
2022-10-25T02:07:21.133Z,12
2022-10-25T02:08:22.152Z,11
2022-10-25T02:09:23.145Z,12
2022-10-25T02:10:24.138Z,12
2022-10-25T02:11:25.133Z,12
2022-10-25T02:12:26.092Z,13
2022-10-25T02:13:27.125Z,13
2022-10-25T02:14:28.218Z,13
2022-10-25T02:15:29.200Z,13
2022-10-25T02:16:31.412Z,12
2022-10-25T02:17:33.137Z,13
2022-10-25T02:18:34.433Z,12
2022-10-25T02:19:37.033Z,12
2022-10-25T02:20:39.910Z,12
2022-10-25T02:21:39.872Z,12
2022-10-25T02:22:41.361Z,12
2022-10-25T02:23:43.120Z,14
2022-10-25T02:24:44.131Z,13
2022-10-25T02:25:45.213Z,13
2022-10-25T02:26:46.540Z,13
2022-10-25T02:27:48.358Z,12
2022-10-25T02:28:49.111Z,12
2022-10-25T02:29:50.299Z,13
2022-10-25T02:30:52.152Z,12
2022-10-25T02:31:53.163Z,12
2022-10-25T02:32:54.372Z,12
2022-10-25T02:33:56.352Z,12
2022-10-25T02:34:58.112Z,12
2022-10-25T02:35:59.384Z,12
2022-10-25T02:37:01.400Z,12
2022-10-25T02:38:03.251Z,12
2022-10-25T02:39:05.236Z,12
2022-10-25T02:40:07.288Z,12
2022-10-25T02:41:09.132Z,12
2022-10-25T02:42:10.220Z,12
2022-10-25T02:43:12.472Z,12
2022-10-25T02:44:14.111Z,13
2022-10-25T02:45:15.956Z,13
2022-10-25T02:46:17.204Z,12
2022-10-25T02:47:18.173Z,12
2022-10-25T02:48:19.454Z,12
2022-10-25T02:49:21.352Z,11
2022-10-25T02:50:23.253Z,12
2022-10-25T02:51:25.135Z,13
2022-10-25T02:52:26.392Z,13
2022-10-25T02:53:28.161Z,12
2022-10-25T02:54:29.191Z,12
2022-10-25T02:55:31.239Z,12
2022-10-25T02:56:32.252Z,12
2022-10-25T02:57:34.293Z,12
2022-10-25T02:58:36.192Z,12
2022-10-25T02:59:37.172Z,11
2022-10-25T03:00:38.273Z,12
2022-10-25T03:01:40.629Z,12
2022-10-25T03:02:42.341Z,12
2022-10-25T03:03:44.201Z,12
2022-10-25T03:04:46.287Z,12
2022-10-25T03:05:48.629Z,11
2022-10-25T03:06:50.220Z,12
2022-10-25T03:07:52.154Z,12
2022-10-25T03:08:53.172Z,12
2022-10-25T03:09:54.132Z,12
2022-10-25T03:10:55.194Z,12
2022-10-25T03:11:56.212Z,11
2022-10-25T03:12:58.292Z,11
2022-10-25T03:14:00.154Z,11
2022-10-25T03:15:01.333Z,11
2022-10-25T03:16:03.356Z,11
2022-10-25T03:17:05.612Z,11
2022-10-25T03:18:07.315Z,9
2022-10-25T03:19:09.153Z,9
2022-10-25T03:20:10.375Z,11
2022-10-25T03:21:12.192Z,9
2022-10-25T03:22:13.900Z,9
2022-10-25T03:23:15.293Z,9
2022-10-25T03:24:17.174Z,9
2022-10-25T03:25:18.781Z,9
2022-10-25T03:26:20.613Z,9
2022-10-25T03:27:22.612Z,11
2022-10-25T03:28:24.152Z,11
2022-10-25T03:29:25.176Z,9
2022-10-25T03:30:26.414Z,9
2022-10-25T03:31:29.777Z,9
2022-10-25T03:32:31.247Z,9
2022-10-25T03:33:32.316Z,9
2022-10-25T03:34:34.173Z,9
2022-10-25T03:35:35.212Z,9
2022-10-25T03:36:36.375Z,9
2022-10-25T03:37:38.212Z,9
2022-10-25T03:38:39.384Z,9
2022-10-25T03:39:42.173Z,9
2022-10-25T03:40:43.172Z,8
2022-10-25T03:41:44.494Z,8
2022-10-25T03:42:46.617Z,9
2022-10-25T03:43:48.711Z,9
2022-10-25T03:44:50.537Z,9
2022-10-25T03:45:52.728Z,9
2022-10-25T03:46:54.216Z,9
2022-10-25T03:47:55.192Z,11
2022-10-25T03:48:56.193Z,9
2022-10-25T03:49:57.231Z,9
2022-10-25T03:50:58.673Z,9
2022-10-25T03:52:01.364Z,9
2022-10-25T03:53:02.257Z,9
2022-10-25T03:54:03.223Z,9
2022-10-25T03:55:04.516Z,9
2022-10-25T03:56:06.531Z,8
2022-10-25T03:57:08.792Z,8
2022-10-25T03:58:10.193Z,9
2022-10-25T03:59:11.212Z,8
2022-10-25T04:00:12.233Z,9
2022-10-25T04:01:13.264Z,9
2022-10-25T04:02:14.333Z,9
2022-10-25T04:03:16.240Z,9
2022-10-25T04:04:17.813Z,9
2022-10-25T04:05:19.232Z,9
2022-10-25T04:06:21.551Z,9
2022-10-25T04:07:23.373Z,9
2022-10-25T04:08:25.836Z,9
2022-10-25T04:09:27.591Z,9
2022-10-25T04:10:29.310Z,9
2022-10-25T04:11:31.686Z,11
2022-10-25T04:12:34.284Z,11
2022-10-25T04:13:37.052Z,11
2022-10-25T04:14:38.291Z,11
2022-10-25T04:15:39.253Z,11
2022-10-25T04:16:40.252Z,11
2022-10-25T04:17:41.918Z,9
2022-10-25T04:18:44.072Z,11
2022-10-25T04:19:45.237Z,11
2022-10-25T04:20:46.261Z,11
2022-10-25T04:21:47.536Z,12
2022-10-25T04:22:50.652Z,13
2022-10-25T04:23:52.656Z,14
2022-10-25T04:24:54.392Z,13
2022-10-25T04:25:56.280Z,13
2022-10-25T04:26:57.213Z,12
2022-10-25T04:27:59.133Z,12
2022-10-25T04:29:00.213Z,13
2022-10-25T04:30:01.308Z,14
2022-10-25T04:31:03.255Z,12
2022-10-25T04:32:04.484Z,12
2022-10-25T04:33:06.393Z,13
2022-10-25T04:34:08.232Z,13
2022-10-25T04:35:09.279Z,13
2022-10-25T04:36:10.259Z,13
2022-10-25T04:37:12.332Z,12
2022-10-25T04:38:14.269Z,14
2022-10-25T04:39:15.281Z,13
2022-10-25T04:40:20.050Z,12
2022-10-25T04:41:19.374Z,12
2022-10-25T04:42:21.393Z,12
2022-10-25T04:43:23.521Z,12
2022-10-25T04:44:25.571Z,13
2022-10-25T04:45:27.331Z,13
2022-10-25T04:46:29.536Z,13
2022-10-25T04:47:31.353Z,12
2022-10-25T04:48:33.339Z,13
2022-10-25T04:49:35.910Z,12
2022-10-25T04:50:37.419Z,12
2022-10-25T04:51:39.278Z,11
2022-10-25T04:52:40.313Z,11
2022-10-25T04:53:42.253Z,11
2022-10-25T04:54:43.199Z,11
2022-10-25T04:55:45.282Z,12
2022-10-25T04:56:46.232Z,12
2022-10-25T04:57:47.229Z,12
2022-10-25T04:58:49.419Z,11
2022-10-25T04:59:51.393Z,11
2022-10-25T05:00:53.360Z,11
2022-10-25T05:01:57.253Z,11
2022-10-25T05:02:58.346Z,11
2022-10-25T05:04:00.378Z,11
2022-10-25T05:05:02.354Z,11
2022-10-25T05:06:04.266Z,11
2022-10-25T05:07:05.391Z,11
2022-10-25T05:08:07.354Z,12
2022-10-25T05:09:09.272Z,11
2022-10-25T05:10:10.373Z,12
2022-10-25T05:11:12.792Z,12
2022-10-25T05:12:14.492Z,12
2022-10-25T05:13:16.673Z,13
2022-10-25T05:14:18.573Z,12
2022-10-25T05:15:20.972Z,12
2022-10-25T05:16:23.153Z,12
2022-10-25T05:17:24.333Z,12
2022-10-25T05:18:27.623Z,11
2022-10-25T05:19:29.556Z,12
2022-10-25T05:20:31.822Z,12
2022-10-25T05:21:33.340Z,12
2022-10-25T05:22:35.394Z,12
2022-10-25T05:23:37.192Z,12
2022-10-25T05:24:38.312Z,13
2022-10-25T05:25:40.532Z,12
2022-10-25T05:26:43.652Z,13
2022-10-25T05:27:45.993Z,12
2022-10-25T05:28:47.296Z,12
2022-10-25T05:29:48.514Z,12
2022-10-25T05:30:50.473Z,11
2022-10-25T05:31:52.952Z,12
2022-10-25T05:32:54.334Z,13
2022-10-25T05:33:55.314Z,14
2022-10-25T05:34:57.370Z,12
2022-10-25T05:35:59.315Z,13
2022-10-25T05:37:00.281Z,14
2022-10-25T05:38:01.340Z,13
2022-10-25T05:39:03.340Z,15
2022-10-25T05:40:05.317Z,13
2022-10-25T05:41:06.631Z,13
2022-10-25T05:42:08.693Z,14
2022-10-25T05:43:10.272Z,14
2022-10-25T05:44:11.162Z,15
2022-10-25T05:45:14.075Z,14
2022-10-25T05:46:15.196Z,14
2022-10-25T05:47:16.617Z,14
2022-10-25T05:48:19.016Z,15
2022-10-25T05:49:20.209Z,15
2022-10-25T05:50:21.464Z,14
2022-10-25T05:51:38.305Z,15
2022-10-25T05:52:24.273Z,15
2022-10-25T05:53:25.263Z,14
2022-10-25T05:54:26.572Z,14
2022-10-25T05:55:28.497Z,14
2022-10-25T05:56:30.539Z,14
2022-10-25T05:57:32.541Z,14
2022-10-25T05:58:34.272Z,14
2022-10-25T05:59:35.812Z,14
2022-10-25T06:01:39.495Z,15
2022-10-25T06:02:40.272Z,14
2022-10-25T06:03:41.720Z,16
2022-10-25T06:04:43.313Z,15
2022-10-25T06:05:45.078Z,14
2022-10-25T06:06:46.679Z,15
2022-10-25T06:07:48.292Z,15
2022-10-25T06:08:49.442Z,15
2022-10-25T06:09:51.332Z,14
2022-10-25T06:10:52.633Z,14
2022-10-25T06:11:55.234Z,15
2022-10-25T06:12:56.279Z,16
2022-10-25T06:13:57.301Z,15
2022-10-25T06:14:58.313Z,14
2022-10-25T06:15:59.270Z,14
2022-10-25T06:17:00.320Z,15
2022-10-25T06:18:01.695Z,14
2022-10-25T06:19:04.737Z,14
2022-10-25T06:20:06.313Z,14
2022-10-25T06:21:07.321Z,14
2022-10-25T06:22:08.233Z,14
2022-10-25T06:23:11.157Z,14
2022-10-25T06:24:12.313Z,15
2022-10-25T06:25:13.520Z,14
2022-10-25T06:26:15.333Z,14
2022-10-25T06:27:16.313Z,15
2022-10-25T06:28:17.626Z,14
2022-10-25T06:29:19.352Z,15
2022-10-25T06:30:21.500Z,15
2022-10-25T06:31:23.284Z,14
2022-10-25T06:32:24.340Z,14
2022-10-25T06:33:27.180Z,13
2022-10-25T06:34:26.812Z,13
2022-10-25T06:35:28.303Z,14
2022-10-25T06:36:29.321Z,14
2022-10-25T06:37:30.393Z,14
2022-10-25T06:38:32.394Z,13
2022-10-25T06:39:34.379Z,13
2022-10-25T06:40:36.593Z,13
2022-10-25T06:41:38.633Z,12
2022-10-25T06:42:40.591Z,13
2022-10-25T06:43:42.303Z,13
2022-10-25T06:44:43.296Z,13
2022-10-25T06:45:44.944Z,13
2022-10-25T06:47:17.271Z,13
2022-10-25T06:47:48.550Z,13
2022-10-25T06:48:50.715Z,13
2022-10-25T06:49:52.733Z,13
2022-10-25T06:50:55.346Z,14
2022-10-25T06:51:56.739Z,14
2022-10-25T06:52:58.439Z,14
2022-10-25T06:54:00.352Z,14
2022-10-25T06:55:01.352Z,13
2022-10-25T06:56:04.410Z,14
2022-10-25T06:57:04.372Z,14
2022-10-25T06:58:07.084Z,13
2022-10-25T06:59:08.300Z,13
2022-10-25T07:00:09.374Z,13
2022-10-25T07:01:11.411Z,12
2022-10-25T07:02:12.413Z,12
2022-10-25T07:03:14.333Z,13
2022-10-25T07:04:16.152Z,13
2022-10-25T07:05:17.292Z,13
2022-10-25T07:06:18.365Z,13
2022-10-25T07:07:19.324Z,13
2022-10-25T07:08:21.040Z,15
2022-10-25T07:09:22.734Z,14
2022-10-25T07:10:24.574Z,13
2022-10-25T07:11:26.716Z,13
2022-10-25T07:12:28.398Z,13
2022-10-25T07:13:30.272Z,13
2022-10-25T07:14:33.412Z,12
2022-10-25T07:15:36.373Z,12
2022-10-25T07:16:36.473Z,12
2022-10-25T07:17:38.592Z,13
2022-10-25T07:18:40.874Z,13
2022-10-25T07:19:42.361Z,12
2022-10-25T07:20:43.368Z,13
2022-10-25T07:21:44.472Z,13
2022-10-25T07:22:46.515Z,12
2022-10-25T07:23:48.951Z,12
2022-10-25T07:24:50.432Z,12
2022-10-25T07:25:52.335Z,12
2022-10-25T07:26:53.813Z,12
2022-10-25T07:27:55.291Z,13
2022-10-25T07:28:56.357Z,12
2022-10-25T07:29:57.292Z,11
2022-10-25T07:30:58.594Z,12
2022-10-25T07:32:00.351Z,11
2022-10-25T07:33:01.413Z,12
2022-10-25T07:34:03.372Z,11
2022-10-25T07:35:05.352Z,12
2022-10-25T07:36:10.937Z,12
2022-10-25T07:37:08.360Z,12
2022-10-25T07:38:10.236Z,12
2022-10-25T07:39:11.371Z,12
2022-10-25T07:40:12.372Z,12
2022-10-25T07:41:13.392Z,12
2022-10-25T07:42:15.894Z,12
2022-10-25T07:43:17.460Z,11
2022-10-25T07:44:24.002Z,9
2022-10-25T07:45:23.514Z,11
2022-10-25T07:46:22.333Z,11
2022-10-25T07:47:23.935Z,11
2022-10-25T07:48:25.412Z,11
2022-10-25T07:49:27.391Z,11
2022-10-25T07:50:28.545Z,11
2022-10-25T07:51:30.656Z,9
2022-10-25T07:52:32.598Z,9
2022-10-25T07:53:35.176Z,12
2022-10-25T07:54:36.993Z,11
2022-10-25T07:55:38.374Z,9
2022-10-25T07:56:39.393Z,9
2022-10-25T07:57:40.812Z,8
2022-10-25T07:58:42.335Z,9
2022-10-25T07:59:43.812Z,9
2022-10-25T08:00:45.287Z,9
2022-10-25T08:01:46.424Z,8
2022-10-25T08:02:47.957Z,8
2022-10-25T08:03:49.592Z,8
2022-10-25T08:04:52.314Z,8
2022-10-25T08:05:52.392Z,8
2022-10-25T08:06:54.214Z,8
2022-10-25T08:07:55.352Z,8
2022-10-25T08:08:56.402Z,8
2022-10-25T08:09:57.722Z,8
2022-10-25T08:10:59.657Z,8
2022-10-25T08:12:01.913Z,11
2022-10-25T08:13:03.360Z,11
2022-10-25T08:14:05.233Z,9
2022-10-25T08:15:06.532Z,7
2022-10-25T08:16:08.513Z,9
2022-10-25T08:17:10.778Z,8
2022-10-25T08:18:12.372Z,9
2022-10-25T08:19:13.401Z,8
2022-10-25T08:20:14.441Z,8
2022-10-25T08:21:16.812Z,8
2022-10-25T08:22:19.236Z,8
2022-10-25T08:23:20.337Z,8
2022-10-25T08:24:21.371Z,8
2022-10-25T08:25:22.542Z,8
2022-10-25T08:26:23.376Z,8
2022-10-25T08:27:24.552Z,7
2022-10-25T08:28:26.526Z,7
2022-10-25T08:29:28.415Z,7
2022-10-25T08:30:29.772Z,6
2022-10-25T08:31:31.393Z,7
2022-10-25T08:32:32.300Z,7
2022-10-25T08:33:33.413Z,7
2022-10-25T08:34:35.328Z,6
2022-10-25T08:35:36.497Z,7
2022-10-25T08:36:38.513Z,6
2022-10-25T08:37:40.413Z,6
2022-10-25T08:38:41.432Z,6
2022-10-25T08:39:43.707Z,6
2022-10-25T08:40:45.712Z,6
2022-10-25T08:41:47.362Z,6
2022-10-25T08:42:48.333Z,6
2022-10-25T08:43:49.667Z,6
2022-10-25T08:44:51.373Z,6
2022-10-25T08:45:52.872Z,6
2022-10-25T08:46:54.394Z,5
2022-10-25T08:47:55.334Z,5
2022-10-25T08:48:56.392Z,5
2022-10-25T08:49:57.333Z,6
2022-10-25T08:50:58.434Z,6
2022-10-25T08:52:00.440Z,6
2022-10-25T08:53:03.012Z,6
2022-10-25T08:54:04.518Z,6
2022-10-25T08:55:06.647Z,5
2022-10-25T08:56:17.116Z,5
2022-10-25T08:57:15.317Z,5
2022-10-25T08:58:13.192Z,6
2022-10-25T08:59:14.680Z,5
2022-10-25T09:00:16.621Z,5
2022-10-25T09:01:18.706Z,5
2022-10-25T09:02:20.620Z,5
2022-10-25T09:03:22.435Z,5
2022-10-25T09:04:23.373Z,5
2022-10-25T09:05:25.183Z,6
2022-10-25T09:06:26.432Z,6
2022-10-25T09:07:27.393Z,6
2022-10-25T09:08:28.890Z,6
2022-10-25T09:09:30.795Z,5
2022-10-25T09:10:32.437Z,5
2022-10-25T09:11:33.455Z,5
2022-10-25T09:12:34.392Z,4
2022-10-25T09:14:36.594Z,6
2022-10-25T09:15:40.349Z,5
2022-10-25T09:16:40.395Z,5
2022-10-25T09:17:41.412Z,4
2022-10-25T09:18:42.353Z,5
2022-10-25T09:19:44.456Z,4
2022-10-25T09:20:46.473Z,5
2022-10-25T09:21:48.455Z,4
2022-10-25T09:22:49.851Z,4
2022-10-25T09:23:54.093Z,3
2022-10-25T09:24:56.939Z,4
2022-10-25T09:25:57.430Z,4
2022-10-25T09:26:58.372Z,4
2022-10-25T09:27:59.434Z,4
2022-10-25T09:29:01.864Z,4
2022-10-25T09:30:05.007Z,5
2022-10-25T09:31:05.790Z,4
2022-10-25T09:32:07.594Z,5
2022-10-25T09:33:10.366Z,4
2022-10-25T09:34:11.435Z,4
2022-10-25T09:35:12.343Z,4
2022-10-25T09:36:13.352Z,4
2022-10-25T09:37:14.392Z,4
2022-10-25T09:38:16.203Z,5
2022-10-25T09:39:17.481Z,4
2022-10-25T09:40:19.420Z,5
2022-10-25T09:41:20.479Z,5
2022-10-25T09:42:21.514Z,4
2022-10-25T09:43:23.733Z,5
2022-10-25T09:44:25.472Z,4
2022-10-25T09:45:26.459Z,4
2022-10-25T09:46:28.393Z,4
2022-10-25T09:47:29.393Z,4
2022-10-25T09:48:30.631Z,3
2022-10-25T09:49:32.875Z,3
2022-10-25T09:50:34.633Z,3
2022-10-25T09:51:36.553Z,3
2022-10-25T09:52:38.614Z,2
2022-10-25T09:53:40.565Z,2
2022-10-25T09:54:42.434Z,2
2022-10-25T09:55:43.493Z,2
2022-10-25T09:56:45.865Z,2
2022-10-25T09:57:47.947Z,3
2022-10-25T09:58:50.133Z,3
2022-10-25T09:59:51.452Z,2
2022-10-25T10:00:52.433Z,3
2022-10-25T10:01:53.697Z,2
2022-10-25T10:02:55.952Z,3
2022-10-25T10:03:58.147Z,2
2022-10-25T10:04:59.772Z,4
2022-10-25T10:06:01.513Z,3
2022-10-25T10:07:03.592Z,3
2022-10-25T10:08:05.453Z,3
2022-10-25T10:09:06.492Z,4
2022-10-25T10:10:07.489Z,3
2022-10-25T10:11:09.412Z,4
2022-10-25T10:12:11.441Z,3
2022-10-25T10:13:12.692Z,3
2022-10-25T10:14:14.474Z,3
2022-10-25T10:15:15.419Z,4
2022-10-25T10:16:16.609Z,4
2022-10-25T10:17:18.772Z,4
2022-10-25T10:18:20.572Z,3
2022-10-25T10:19:22.555Z,4
2022-10-25T10:20:24.732Z,3
2022-10-25T10:21:26.733Z,3
2022-10-25T10:22:29.576Z,3
2022-10-25T10:23:31.675Z,4
2022-10-25T10:24:33.442Z,4
2022-10-25T10:25:34.592Z,3
2022-10-25T10:26:36.813Z,3
2022-10-25T10:27:38.622Z,3
2022-10-25T10:28:40.873Z,2
2022-10-25T10:29:42.368Z,2
2022-10-25T10:30:43.474Z,2
2022-10-25T10:31:45.012Z,2
2022-10-25T10:32:46.875Z,3
2022-10-25T10:33:48.513Z,3
2022-10-25T10:34:50.541Z,3
2022-10-25T10:35:52.531Z,3
2022-10-25T10:36:54.972Z,3
2022-10-25T10:37:56.632Z,3
2022-10-25T10:38:58.534Z,3
2022-10-25T10:40:00.862Z,4
2022-10-25T10:41:03.134Z,4
2022-10-25T10:42:04.862Z,4
2022-10-25T10:43:06.536Z,4
2022-10-25T10:44:07.475Z,3
2022-10-25T10:45:08.828Z,3
2022-10-25T10:46:10.591Z,3
2022-10-25T10:47:12.570Z,3
2022-10-25T10:48:14.512Z,5
2022-10-25T10:49:16.553Z,5
2022-10-25T10:50:18.479Z,5
2022-10-25T10:51:45.642Z,5
2022-10-25T10:53:24.454Z,4
2022-10-25T10:54:25.493Z,4
2022-10-25T10:55:27.314Z,5
2022-10-25T10:56:28.771Z,5
2022-10-25T10:57:30.499Z,4
2022-10-25T10:58:31.505Z,4
2022-10-25T10:59:32.913Z,4
2022-10-25T11:00:34.881Z,4
2022-10-25T11:01:37.418Z,4
2022-10-25T11:02:39.048Z,4
2022-10-25T11:03:42.488Z,5
2022-10-25T11:04:42.794Z,4
2022-10-25T11:05:44.412Z,4
2022-10-25T11:06:45.452Z,4
2022-10-25T11:07:46.763Z,3
2022-10-25T11:08:49.002Z,4
2022-10-25T11:09:50.885Z,3
2022-10-25T11:10:53.432Z,3
2022-10-25T11:11:54.534Z,3
2022-10-25T11:12:56.535Z,4
2022-10-25T11:13:59.103Z,3
2022-10-25T11:15:00.553Z,5
2022-10-25T11:16:02.572Z,4
2022-10-25T11:17:04.500Z,3
2022-10-25T11:18:06.512Z,4
2022-10-25T11:19:08.753Z,5
2022-10-25T11:20:10.694Z,3
2022-10-25T11:21:12.933Z,3
2022-10-25T11:22:14.592Z,3
2022-10-25T11:23:17.133Z,3
2022-10-25T11:24:18.739Z,3
2022-10-25T11:25:21.311Z,3
2022-10-25T11:26:22.693Z,3
2022-10-25T11:27:24.499Z,2
2022-10-25T11:28:25.755Z,2
2022-10-25T11:29:27.962Z,3
2022-10-25T11:30:29.531Z,3
2022-10-25T11:31:30.612Z,3
2022-10-25T11:32:32.605Z,3
2022-10-25T11:33:34.680Z,2
2022-10-25T11:34:36.513Z,3
2022-10-25T11:35:38.572Z,2
2022-10-25T11:36:40.571Z,1
2022-10-25T11:37:42.472Z,2
2022-10-25T11:38:43.492Z,2
2022-10-25T11:39:48.126Z,3
2022-10-25T11:40:46.536Z,2
2022-10-25T11:41:48.517Z,4
2022-10-25T11:42:50.074Z,5
2022-10-25T11:43:52.073Z,5
2022-10-25T11:44:54.152Z,4
2022-10-25T11:45:55.519Z,4
2022-10-25T11:46:57.560Z,5
2022-10-25T11:47:59.486Z,5
2022-10-25T11:49:00.815Z,5
2022-10-25T11:50:02.802Z,5
2022-10-25T11:51:04.572Z,5
2022-10-25T11:52:07.028Z,5
2022-10-25T11:53:08.693Z,5
2022-10-25T11:54:10.532Z,5
2022-10-25T11:55:12.600Z,5
2022-10-25T11:56:14.992Z,3
2022-10-25T11:57:16.612Z,2
2022-10-25T11:58:18.593Z,3
2022-10-25T11:59:20.861Z,4
2022-10-25T12:00:23.810Z,4
2022-10-25T12:01:25.619Z,5
2022-10-25T12:02:27.638Z,5
2022-10-25T12:03:30.012Z,5
2022-10-25T12:04:37.753Z,4
2022-10-25T12:05:36.496Z,5
2022-10-25T12:06:37.552Z,5
2022-10-25T12:07:39.952Z,3
2022-10-25T12:08:41.554Z,3
2022-10-25T12:09:43.572Z,3
2022-10-25T12:11:46.612Z,3
2022-10-25T12:12:49.970Z,4
2022-10-25T12:13:51.542Z,3
2022-10-25T12:14:53.493Z,3
2022-10-25T12:15:54.632Z,3
2022-10-25T12:16:55.572Z,2
2022-10-25T12:17:57.531Z,1
2022-10-25T12:18:58.571Z,1
2022-10-25T12:20:03.613Z,2
2022-10-25T12:21:05.488Z,2
2022-10-25T12:22:06.695Z,2
2022-10-25T12:23:09.012Z,2
2022-10-25T12:24:10.554Z,2
2022-10-25T12:25:11.513Z,1
2022-10-25T12:26:12.792Z,2
2022-10-25T12:27:14.570Z,2
2022-10-25T12:28:16.927Z,3
2022-10-25T12:29:18.455Z,3
2022-10-25T12:30:19.590Z,2
2022-10-25T12:31:20.650Z,2
2022-10-25T12:32:21.610Z,2
2022-10-25T12:33:23.511Z,1
2022-10-25T12:34:24.552Z,2
2022-10-25T12:35:26.573Z,2
2022-10-25T12:36:28.512Z,2
2022-10-25T12:37:29.538Z,2
2022-10-25T12:38:30.541Z,2
2022-10-25T12:39:32.472Z,2
2022-10-25T12:40:34.587Z,3
2022-10-25T12:41:35.892Z,3
2022-10-25T12:42:37.813Z,3
2022-10-25T12:43:39.683Z,4
2022-10-25T12:44:41.474Z,4
2022-10-25T12:45:42.953Z,3
2022-10-25T12:46:44.813Z,2
2022-10-25T12:47:46.773Z,3
2022-10-25T12:48:48.479Z,2
2022-10-25T12:49:49.888Z,2
2022-10-25T12:50:51.800Z,2
2022-10-25T12:51:53.732Z,2
2022-10-25T12:52:56.113Z,2
2022-10-25T12:53:57.557Z,1
2022-10-25T12:54:58.591Z,2
2022-10-25T12:56:00.591Z,2
2022-10-25T12:57:02.780Z,2
2022-10-25T12:58:04.852Z,2
2022-10-25T12:59:06.473Z,3
2022-10-25T13:00:07.864Z,3
2022-10-25T13:01:09.756Z,2
2022-10-25T13:02:11.979Z,3
2022-10-25T13:03:17.019Z,3
2022-10-25T13:04:15.512Z,2
2022-10-25T13:05:16.718Z,3
2022-10-25T13:06:19.596Z,3
2022-10-25T13:07:21.582Z,3
2022-10-25T13:08:23.532Z,3
2022-10-25T13:09:27.078Z,3
2022-10-25T13:11:27.532Z,1
2022-10-25T13:12:28.655Z,0
2022-10-25T13:13:30.712Z,1
2022-10-25T13:14:32.633Z,1
2022-10-25T13:15:35.313Z,2
2022-10-25T13:16:36.764Z,3
2022-10-25T13:17:39.192Z,4
2022-10-25T13:18:40.559Z,3
2022-10-25T13:19:53.923Z,3
2022-10-25T13:20:42.815Z,2
2022-10-25T13:21:44.794Z,4
2022-10-25T13:22:47.544Z,4
2022-10-25T13:23:48.892Z,3
2022-10-25T13:24:50.732Z,3
2022-10-25T13:25:52.532Z,3
2022-10-25T13:26:53.752Z,3
2022-10-25T13:27:55.512Z,4
2022-10-25T13:28:56.533Z,2
2022-10-25T13:29:57.975Z,2
2022-10-25T13:30:59.674Z,2
2022-10-25T13:32:01.543Z,2
2022-10-25T13:33:02.729Z,2
2022-10-25T13:34:04.776Z,2
2022-10-25T13:35:06.700Z,2
2022-10-25T13:36:08.952Z,2
2022-10-25T13:37:10.614Z,4
2022-10-25T13:38:12.553Z,2
2022-10-25T13:39:13.573Z,3
2022-10-25T13:40:14.597Z,3
2022-10-25T13:41:15.592Z,2
2022-10-25T13:42:16.632Z,2
2022-10-25T13:43:18.632Z,2
2022-10-25T13:44:20.521Z,2
2022-10-25T13:45:21.671Z,2
2022-10-25T13:46:23.613Z,2
2022-10-25T13:47:24.552Z,2
2022-10-25T13:48:25.753Z,1
2022-10-25T13:49:27.998Z,1
2022-10-25T13:50:29.653Z,1
2022-10-25T13:51:31.559Z,2
2022-10-25T13:52:32.837Z,2
2022-10-25T13:53:34.606Z,2
2022-10-25T13:54:35.576Z,2
2022-10-25T13:55:36.536Z,2
2022-10-25T13:56:37.546Z,2
2022-10-25T13:57:38.535Z,3
2022-10-25T13:58:40.098Z,3
2022-10-25T13:59:41.472Z,3
2022-10-25T14:00:44.627Z,3
2022-10-25T14:01:44.674Z,3
2022-10-25T14:02:45.804Z,3
2022-10-25T14:03:46.558Z,3
2022-10-25T14:04:47.863Z,3
2022-10-25T14:05:50.696Z,3
2022-10-25T14:06:53.317Z,4
2022-10-25T14:07:54.607Z,4
2022-10-25T14:08:56.674Z,5
2022-10-25T14:09:58.620Z,5
2022-10-25T14:11:00.658Z,4
2022-10-25T14:12:03.433Z,4
2022-10-25T14:13:04.677Z,5
2022-10-25T14:14:06.675Z,5
2022-10-25T14:15:08.655Z,3
2022-10-25T14:16:10.639Z,4
2022-10-25T14:17:12.586Z,4
2022-10-25T14:18:13.755Z,4
2022-10-25T14:19:15.695Z,4
2022-10-25T14:20:17.984Z,4
2022-10-25T14:21:19.848Z,4
2022-10-25T14:22:22.561Z,4
2022-10-25T14:23:24.665Z,4
2022-10-25T14:24:26.544Z,4
2022-10-25T14:25:28.637Z,4
2022-10-25T14:26:30.647Z,3
2022-10-25T14:27:32.620Z,4
2022-10-25T14:28:34.726Z,4
2022-10-25T14:29:36.702Z,4
2022-10-25T14:30:38.609Z,4
2022-10-25T14:31:40.598Z,4
2022-10-25T14:32:42.557Z,4
2022-10-25T14:33:43.581Z,5
2022-10-25T14:34:44.598Z,5
2022-10-25T14:35:45.568Z,5
2022-10-25T14:36:46.486Z,4
2022-10-25T14:37:47.582Z,5
2022-10-25T14:38:50.116Z,4
2022-10-25T14:39:51.812Z,4
2022-10-25T14:40:54.093Z,4
2022-10-25T14:41:55.918Z,5
2022-10-25T14:42:57.565Z,5
2022-10-25T14:43:58.475Z,5
2022-10-25T14:44:59.565Z,5
2022-10-25T14:46:00.554Z,5
2022-10-25T14:47:01.567Z,5
2022-10-25T14:48:02.586Z,5
2022-10-25T14:49:03.553Z,4
2022-10-25T14:51:06.678Z,5
2022-10-25T14:52:08.677Z,5
2022-10-25T14:53:11.036Z,5
2022-10-25T14:54:12.591Z,5
2022-10-25T14:55:13.702Z,4
2022-10-25T14:56:15.572Z,5
2022-10-25T14:57:16.701Z,4
2022-10-25T14:58:18.595Z,4
2022-10-25T14:59:19.549Z,4
2022-10-25T15:00:21.155Z,4
2022-10-25T15:01:22.773Z,5
2022-10-25T15:02:24.590Z,4
2022-10-25T15:03:25.541Z,3
2022-10-25T15:04:26.793Z,3
2022-10-25T15:05:28.698Z,4
2022-10-25T15:06:30.821Z,4
2022-10-25T15:07:33.086Z,3